sensor_id;sensor_type;location;lat;lon;timestamp;P1;durP1;ratioP1;P2;durP2;ratioP2
10687;SDS011;5392;42.688;23.298;2023-02-23T00:01:57;10.85;;;6.38;;
10687;SDS011;5392;42.688;23.298;2023-02-23T00:04:34;10.57;;;7.32;;
10687;SDS011;5392;42.688;23.298;2023-02-23T00:07:01;11.38;;;7.18;;
10687;SDS011;5392;42.688;23.298;2023-02-23T00:09:28;11.32;;;7.35;;
10687;SDS011;5392;42.688;23.298;2023-02-23T00:12:01;9.88;;;7.47;;
10687;SDS011;5392;42.688;23.298;2023-02-23T00:14:34;14.45;;;7.50;;
10687;SDS011;5392;42.688;23.298;2023-02-23T00:17:03;13.85;;;8.27;;
10687;SDS011;5392;42.688;23.298;2023-02-23T00:19:30;14.30;;;8.73;;
10687;SDS011;5392;42.688;23.298;2023-02-23T00:21:58;15.38;;;9.20;;
10687;SDS011;5392;42.688;23.298;2023-02-23T00:24:26;12.80;;;9.55;;
10687;SDS011;5392;42.688;23.298;2023-02-23T00:26:53;12.77;;;8.80;;
10687;SDS011;5392;42.688;23.298;2023-02-23T00:29:20;14.27;;;9.07;;
10687;SDS011;5392;42.688;23.298;2023-02-23T00:31:49;13.27;;;8.70;;
10687;SDS011;5392;42.688;23.298;2023-02-23T00:34:17;12.02;;;8.68;;
10687;SDS011;5392;42.688;23.298;2023-02-23T00:36:52;12.55;;;8.45;;
10687;SDS011;5392;42.688;23.298;2023-02-23T00:39:21;14.30;;;8.82;;
10687;SDS011;5392;42.688;23.298;2023-02-23T00:41:52;16.92;;;10.07;;
10687;SDS011;5392;42.688;23.298;2023-02-23T00:44:20;14.48;;;10.27;;
10687;SDS011;5392;42.688;23.298;2023-02-23T00:46:48;14.43;;;10.38;;
10687;SDS011;5392;42.688;23.298;2023-02-23T00:49:18;16.15;;;10.27;;
10687;SDS011;5392;42.688;23.298;2023-02-23T00:51:45;13.02;;;8.88;;
10687;SDS011;5392;42.688;23.298;2023-02-23T00:54:13;14.13;;;8.40;;
10687;SDS011;5392;42.688;23.298;2023-02-23T00:56:41;10.95;;;8.50;;
10687;SDS011;5392;42.688;23.298;2023-02-23T00:59:09;13.10;;;8.85;;
10687;SDS011;5392;42.688;23.298;2023-02-23T01:01:36;16.67;;;9.70;;
10687;SDS011;5392;42.688;23.298;2023-02-23T01:04:04;16.50;;;10.57;;
10687;SDS011;5392;42.688;23.298;2023-02-23T01:06:32;15.75;;;10.57;;
10687;SDS011;5392;42.688;23.298;2023-02-23T01:09:05;16.83;;;10.88;;
10687;SDS011;5392;42.688;23.298;2023-02-23T01:11:36;21.77;;;11.05;;
10687;SDS011;5392;42.688;23.298;2023-02-23T01:14:03;16.33;;;10.13;;
10687;SDS011;5392;42.688;23.298;2023-02-23T01:16:31;14.20;;;10.07;;
10687;SDS011;5392;42.688;23.298;2023-02-23T01:19:00;16.95;;;10.73;;
10687;SDS011;5392;42.688;23.298;2023-02-23T01:21:30;15.45;;;10.70;;
10687;SDS011;5392;42.688;23.298;2023-02-23T01:24:02;13.98;;;10.02;;
10687;SDS011;5392;42.688;23.298;2023-02-23T01:26:30;15.75;;;10.27;;
10687;SDS011;5392;42.688;23.298;2023-02-23T01:29:01;16.00;;;11.15;;
10687;SDS011;5392;42.688;23.298;2023-02-23T01:31:29;17.88;;;11.43;;
10687;SDS011;5392;42.688;23.298;2023-02-23T01:33:58;17.23;;;11.35;;
10687;SDS011;5392;42.688;23.298;2023-02-23T01:36:26;16.70;;;11.40;;
10687;SDS011;5392;42.688;23.298;2023-02-23T01:38:54;19.42;;;11.80;;
10687;SDS011;5392;42.688;23.298;2023-02-23T01:41:26;16.90;;;11.65;;
10687;SDS011;5392;42.688;23.298;2023-02-23T01:43:59;15.82;;;11.63;;
10687;SDS011;5392;42.688;23.298;2023-02-23T01:46:32;17.48;;;11.90;;
10687;SDS011;5392;42.688;23.298;2023-02-23T01:49:00;20.60;;;12.48;;
10687;SDS011;5392;42.688;23.298;2023-02-23T01:51:30;20.00;;;11.90;;
10687;SDS011;5392;42.688;23.298;2023-02-23T01:54:06;18.67;;;12.10;;
10687;SDS011;5392;42.688;23.298;2023-02-23T01:56:35;18.30;;;11.68;;
10687;SDS011;5392;42.688;23.298;2023-02-23T01:59:08;22.95;;;12.27;;
10687;SDS011;5392;42.688;23.298;2023-02-23T02:01:40;17.02;;;11.63;;
10687;SDS011;5392;42.688;23.298;2023-02-23T02:04:08;18.10;;;12.23;;
10687;SDS011;5392;42.688;23.298;2023-02-23T02:06:42;17.23;;;12.93;;
10687;SDS011;5392;42.688;23.298;2023-02-23T02:09:12;21.70;;;15.18;;
10687;SDS011;5392;42.688;23.298;2023-02-23T02:11:42;23.67;;;16.40;;
10687;SDS011;5392;42.688;23.298;2023-02-23T02:14:12;24.83;;;15.70;;
10687;SDS011;5392;42.688;23.298;2023-02-23T02:45:40;17.83;;;11.85;;
10687;SDS011;5392;42.688;23.298;2023-02-23T02:48:16;20.27;;;12.13;;
10687;SDS011;5392;42.688;23.298;2023-02-23T02:50:46;19.63;;;12.20;;
10687;SDS011;5392;42.688;23.298;2023-02-23T02:56:10;17.90;;;11.52;;
10687;SDS011;5392;42.688;23.298;2023-02-23T02:58:45;18.52;;;11.48;;
10687;SDS011;5392;42.688;23.298;2023-02-23T03:01:15;16.15;;;11.65;;
10687;SDS011;5392;42.688;23.298;2023-02-23T03:04:18;20.02;;;11.95;;
10687;SDS011;5392;42.688;23.298;2023-02-23T03:07:10;19.55;;;12.80;;
10687;SDS011;5392;42.688;23.298;2023-02-23T03:13:26;23.30;;;15.27;;
10687;SDS011;5392;42.688;23.298;2023-02-23T03:22:37;20.90;;;13.68;;
10687;SDS011;5392;42.688;23.298;2023-02-23T03:25:33;21.52;;;14.52;;
10687;SDS011;5392;42.688;23.298;2023-02-23T03:28:31;21.85;;;14.85;;
10687;SDS011;5392;42.688;23.298;2023-02-23T03:34:32;24.77;;;14.20;;
10687;SDS011;5392;42.688;23.298;2023-02-23T03:37:26;20.50;;;13.63;;
10687;SDS011;5392;42.688;23.298;2023-02-23T03:43:11;21.75;;;13.82;;
10687;SDS011;5392;42.688;23.298;2023-02-23T03:46:02;17.33;;;12.40;;
10687;SDS011;5392;42.688;23.298;2023-02-23T03:48:51;18.15;;;12.23;;
10687;SDS011;5392;42.688;23.298;2023-02-23T03:51:41;16.92;;;11.73;;
10687;SDS011;5392;42.688;23.298;2023-02-23T03:54:33;17.17;;;12.00;;
10687;SDS011;5392;42.688;23.298;2023-02-23T03:57:23;16.05;;;12.02;;
10687;SDS011;5392;42.688;23.298;2023-02-23T04:00:12;14.82;;;11.77;;
10687;SDS011;5392;42.688;23.298;2023-02-23T04:03:02;17.90;;;12.25;;
10687;SDS011;5392;42.688;23.298;2023-02-23T04:05:49;16.13;;;12.60;;
10687;SDS011;5392;42.688;23.298;2023-02-23T04:08:37;19.58;;;12.25;;
10687;SDS011;5392;42.688;23.298;2023-02-23T04:11:26;19.75;;;12.93;;
10687;SDS011;5392;42.688;23.298;2023-02-23T04:14:35;17.77;;;12.23;;
10687;SDS011;5392;42.688;23.298;2023-02-23T04:17:07;16.50;;;12.20;;
10687;SDS011;5392;42.688;23.298;2023-02-23T04:19:36;16.73;;;12.77;;
10687;SDS011;5392;42.688;23.298;2023-02-23T04:22:02;16.98;;;13.23;;
10687;SDS011;5392;42.688;23.298;2023-02-23T04:24:29;21.95;;;13.50;;
10687;SDS011;5392;42.688;23.298;2023-02-23T04:26:56;21.75;;;13.65;;
10687;SDS011;5392;42.688;23.298;2023-02-23T04:29:22;22.02;;;14.18;;
10687;SDS011;5392;42.688;23.298;2023-02-23T04:31:49;21.10;;;14.05;;
10687;SDS011;5392;42.688;23.298;2023-02-23T04:34:16;22.05;;;14.00;;
10687;SDS011;5392;42.688;23.298;2023-02-23T04:36:42;18.30;;;12.95;;
10687;SDS011;5392;42.688;23.298;2023-02-23T04:39:09;19.77;;;14.27;;
10687;SDS011;5392;42.688;23.298;2023-02-23T04:41:35;22.25;;;14.35;;
10687;SDS011;5392;42.688;23.298;2023-02-23T04:44:02;20.20;;;14.50;;
10687;SDS011;5392;42.688;23.298;2023-02-23T04:46:30;23.77;;;16.35;;
10687;SDS011;5392;42.688;23.298;2023-02-23T04:48:56;21.73;;;14.48;;
10687;SDS011;5392;42.688;23.298;2023-02-23T04:51:23;24.27;;;15.27;;
10687;SDS011;5392;42.688;23.298;2023-02-23T04:53:55;24.65;;;15.95;;
10687;SDS011;5392;42.688;23.298;2023-02-23T04:56:22;23.55;;;15.70;;
10687;SDS011;5392;42.688;23.298;2023-02-23T04:58:49;21.35;;;15.05;;
10687;SDS011;5392;42.688;23.298;2023-02-23T05:01:16;23.13;;;15.02;;
10687;SDS011;5392;42.688;23.298;2023-02-23T05:03:43;22.95;;;15.23;;
10687;SDS011;5392;42.688;23.298;2023-02-23T05:06:10;23.17;;;15.02;;
10687;SDS011;5392;42.688;23.298;2023-02-23T05:08:37;23.88;;;14.60;;
10687;SDS011;5392;42.688;23.298;2023-02-23T05:11:05;21.20;;;15.13;;
10687;SDS011;5392;42.688;23.298;2023-02-23T05:13:32;21.90;;;15.20;;
10687;SDS011;5392;42.688;23.298;2023-02-23T05:15:59;23.25;;;15.35;;
10687;SDS011;5392;42.688;23.298;2023-02-23T05:18:25;20.48;;;15.15;;
10687;SDS011;5392;42.688;23.298;2023-02-23T05:21:11;20.00;;;14.55;;
10687;SDS011;5392;42.688;23.298;2023-02-23T05:23:37;21.35;;;14.32;;
10687;SDS011;5392;42.688;23.298;2023-02-23T05:26:05;20.27;;;14.73;;
10687;SDS011;5392;42.688;23.298;2023-02-23T05:28:35;17.58;;;12.95;;
10687;SDS011;5392;42.688;23.298;2023-02-23T05:31:03;16.65;;;12.95;;
10687;SDS011;5392;42.688;23.298;2023-02-23T05:33:31;22.42;;;13.73;;
10687;SDS011;5392;42.688;23.298;2023-02-23T05:35:58;19.52;;;12.80;;
10687;SDS011;5392;42.688;23.298;2023-02-23T05:38:25;20.50;;;10.98;;
10687;SDS011;5392;42.688;23.298;2023-02-23T05:40:52;19.20;;;12.02;;
10687;SDS011;5392;42.688;23.298;2023-02-23T05:43:19;21.90;;;13.70;;
10687;SDS011;5392;42.688;23.298;2023-02-23T05:45:45;19.85;;;13.85;;
10687;SDS011;5392;42.688;23.298;2023-02-23T05:48:12;21.35;;;14.68;;
10687;SDS011;5392;42.688;23.298;2023-02-23T05:50:39;24.70;;;16.00;;
10687;SDS011;5392;42.688;23.298;2023-02-23T05:53:05;25.75;;;16.67;;
10687;SDS011;5392;42.688;23.298;2023-02-23T05:55:32;28.70;;;19.65;;
10687;SDS011;5392;42.688;23.298;2023-02-23T05:57:59;29.05;;;17.30;;
10687;SDS011;5392;42.688;23.298;2023-02-23T06:00:25;23.13;;;15.23;;
10687;SDS011;5392;42.688;23.298;2023-02-23T06:02:52;24.80;;;14.38;;
10687;SDS011;5392;42.688;23.298;2023-02-23T06:05:19;29.98;;;17.63;;
10687;SDS011;5392;42.688;23.298;2023-02-23T06:07:46;30.55;;;17.88;;
10687;SDS011;5392;42.688;23.298;2023-02-23T06:10:13;30.88;;;19.05;;
10687;SDS011;5392;42.688;23.298;2023-02-23T06:12:40;31.55;;;18.40;;
10687;SDS011;5392;42.688;23.298;2023-02-23T06:15:06;32.95;;;19.45;;
10687;SDS011;5392;42.688;23.298;2023-02-23T06:17:34;35.13;;;19.52;;
10687;SDS011;5392;42.688;23.298;2023-02-23T06:20:02;31.02;;;18.50;;
10687;SDS011;5392;42.688;23.298;2023-02-23T06:22:30;28.52;;;17.38;;
10687;SDS011;5392;42.688;23.298;2023-02-23T06:24:56;28.58;;;18.58;;
10687;SDS011;5392;42.688;23.298;2023-02-23T06:27:23;37.38;;;18.45;;
10687;SDS011;5392;42.688;23.298;2023-02-23T06:29:51;28.98;;;18.90;;
10687;SDS011;5392;42.688;23.298;2023-02-23T06:32:17;25.35;;;17.65;;
10687;SDS011;5392;42.688;23.298;2023-02-23T06:34:44;48.50;;;25.30;;
10687;SDS011;5392;42.688;23.298;2023-02-23T06:37:10;32.25;;;21.40;;
10687;SDS011;5392;42.688;23.298;2023-02-23T06:39:37;30.38;;;19.13;;
10687;SDS011;5392;42.688;23.298;2023-02-23T06:42:04;31.90;;;20.90;;
10687;SDS011;5392;42.688;23.298;2023-02-23T06:44:30;37.15;;;21.30;;
10687;SDS011;5392;42.688;23.298;2023-02-23T06:47:02;51.20;;;21.90;;
10687;SDS011;5392;42.688;23.298;2023-02-23T06:49:31;47.80;;;21.55;;
10687;SDS011;5392;42.688;23.298;2023-02-23T06:51:58;37.58;;;20.83;;
10687;SDS011;5392;42.688;23.298;2023-02-23T06:54:25;50.72;;;24.40;;
10687;SDS011;5392;42.688;23.298;2023-02-23T06:56:52;48.33;;;22.70;;
10687;SDS011;5392;42.688;23.298;2023-02-23T06:59:20;45.83;;;20.75;;
10687;SDS011;5392;42.688;23.298;2023-02-23T07:01:47;40.20;;;19.70;;
10687;SDS011;5392;42.688;23.298;2023-02-23T07:04:14;41.72;;;20.83;;
10687;SDS011;5392;42.688;23.298;2023-02-23T07:06:42;43.65;;;20.08;;
10687;SDS011;5392;42.688;23.298;2023-02-23T07:09:09;43.70;;;20.40;;
10687;SDS011;5392;42.688;23.298;2023-02-23T07:11:35;48.30;;;20.38;;
10687;SDS011;5392;42.688;23.298;2023-02-23T07:14:02;25.42;;;17.17;;
10687;SDS011;5392;42.688;23.298;2023-02-23T07:16:28;67.60;;;20.60;;
10687;SDS011;5392;42.688;23.298;2023-02-23T07:18:55;62.95;;;18.90;;
10687;SDS011;5392;42.688;23.298;2023-02-23T07:21:22;57.75;;;19.27;;
10687;SDS011;5392;42.688;23.298;2023-02-23T07:23:49;63.75;;;20.05;;
10687;SDS011;5392;42.688;23.298;2023-02-23T07:26:15;41.72;;;17.27;;
10687;SDS011;5392;42.688;23.298;2023-02-23T07:28:43;31.10;;;17.45;;
10687;SDS011;5392;42.688;23.298;2023-02-23T07:31:10;32.47;;;17.45;;
10687;SDS011;5392;42.688;23.298;2023-02-23T07:33:36;30.83;;;17.48;;
10687;SDS011;5392;42.688;23.298;2023-02-23T07:36:03;38.65;;;17.13;;
10687;SDS011;5392;42.688;23.298;2023-02-23T07:38:31;45.38;;;18.90;;
10687;SDS011;5392;42.688;23.298;2023-02-23T07:40:58;47.13;;;18.08;;
10687;SDS011;5392;42.688;23.298;2023-02-23T07:43:24;31.05;;;16.73;;
10687;SDS011;5392;42.688;23.298;2023-02-23T07:45:51;26.85;;;17.00;;
10687;SDS011;5392;42.688;23.298;2023-02-23T07:48:18;36.80;;;19.77;;
10687;SDS011;5392;42.688;23.298;2023-02-23T07:50:45;25.00;;;16.85;;
10687;SDS011;5392;42.688;23.298;2023-02-23T07:53:13;30.33;;;15.27;;
10687;SDS011;5392;42.688;23.298;2023-02-23T07:55:41;16.95;;;11.48;;
10687;SDS011;5392;42.688;23.298;2023-02-23T07:58:08;20.95;;;12.30;;
10687;SDS011;5392;42.688;23.298;2023-02-23T08:00:35;23.25;;;13.55;;
10687;SDS011;5392;42.688;23.298;2023-02-23T08:03:04;20.05;;;14.02;;
10687;SDS011;5392;42.688;23.298;2023-02-23T08:05:31;19.20;;;10.55;;
10687;SDS011;5392;42.688;23.298;2023-02-23T08:07:58;19.48;;;11.55;;
10687;SDS011;5392;42.688;23.298;2023-02-23T08:10:25;21.17;;;11.45;;
10687;SDS011;5392;42.688;23.298;2023-02-23T08:12:52;9.75;;;8.38;;
10687;SDS011;5392;42.688;23.298;2023-02-23T08:15:18;20.55;;;10.98;;
10687;SDS011;5392;42.688;23.298;2023-02-23T08:17:45;23.85;;;10.88;;
10687;SDS011;5392;42.688;23.298;2023-02-23T08:20:12;32.05;;;12.80;;
10687;SDS011;5392;42.688;23.298;2023-02-23T08:22:38;22.20;;;12.65;;
10687;SDS011;5392;42.688;23.298;2023-02-23T08:25:15;18.73;;;13.50;;
10687;SDS011;5392;42.688;23.298;2023-02-23T08:27:42;16.10;;;11.85;;
10687;SDS011;5392;42.688;23.298;2023-02-23T08:30:09;26.05;;;16.80;;
10687;SDS011;5392;42.688;23.298;2023-02-23T08:32:36;35.05;;;18.65;;
10687;SDS011;5392;42.688;23.298;2023-02-23T08:35:03;32.70;;;17.17;;
10687;SDS011;5392;42.688;23.298;2023-02-23T08:37:31;25.42;;;16.92;;
10687;SDS011;5392;42.688;23.298;2023-02-23T08:39:58;43.03;;;18.90;;
10687;SDS011;5392;42.688;23.298;2023-02-23T08:42:26;24.30;;;15.88;;
10687;SDS011;5392;42.688;23.298;2023-02-23T08:44:53;21.85;;;17.17;;
10687;SDS011;5392;42.688;23.298;2023-02-23T08:47:20;28.20;;;17.27;;
10687;SDS011;5392;42.688;23.298;2023-02-23T08:49:48;24.17;;;16.60;;
10687;SDS011;5392;42.688;23.298;2023-02-23T08:52:16;23.05;;;16.42;;
10687;SDS011;5392;42.688;23.298;2023-02-23T08:54:43;24.00;;;17.15;;
10687;SDS011;5392;42.688;23.298;2023-02-23T08:57:09;26.67;;;16.60;;
10687;SDS011;5392;42.688;23.298;2023-02-23T08:59:37;26.48;;;16.60;;
10687;SDS011;5392;42.688;23.298;2023-02-23T09:02:06;24.50;;;17.90;;
10687;SDS011;5392;42.688;23.298;2023-02-23T09:04:37;33.78;;;20.30;;
10687;SDS011;5392;42.688;23.298;2023-02-23T09:07:07;26.40;;;19.45;;
10687;SDS011;5392;42.688;23.298;2023-02-23T09:09:35;25.80;;;18.38;;
10687;SDS011;5392;42.688;23.298;2023-02-23T09:12:02;32.60;;;19.80;;
10687;SDS011;5392;42.688;23.298;2023-02-23T09:14:28;26.92;;;18.60;;
10687;SDS011;5392;42.688;23.298;2023-02-23T09:16:55;27.65;;;19.33;;
10687;SDS011;5392;42.688;23.298;2023-02-23T09:19:22;29.35;;;19.23;;
10687;SDS011;5392;42.688;23.298;2023-02-23T09:21:48;26.92;;;20.10;;
10687;SDS011;5392;42.688;23.298;2023-02-23T09:24:15;31.70;;;20.20;;
10687;SDS011;5392;42.688;23.298;2023-02-23T09:26:43;25.58;;;18.65;;
10687;SDS011;5392;42.688;23.298;2023-02-23T09:29:11;35.15;;;18.50;;
10687;SDS011;5392;42.688;23.298;2023-02-23T09:31:37;25.25;;;17.85;;
10687;SDS011;5392;42.688;23.298;2023-02-23T09:34:04;25.73;;;17.05;;
10687;SDS011;5392;42.688;23.298;2023-02-23T09:36:31;25.90;;;17.52;;
10687;SDS011;5392;42.688;23.298;2023-02-23T09:38:58;27.15;;;18.40;;
10687;SDS011;5392;42.688;23.298;2023-02-23T09:49:27;24.27;;;15.25;;
10687;SDS011;5392;42.688;23.298;2023-02-23T09:51:59;30.25;;;14.90;;
10687;SDS011;5392;42.688;23.298;2023-02-23T09:54:31;25.60;;;14.07;;
10687;SDS011;5392;42.688;23.298;2023-02-23T09:57:03;17.00;;;13.57;;
10687;SDS011;5392;42.688;23.298;2023-02-23T09:59:36;17.85;;;13.38;;
10687;SDS011;5392;42.688;23.298;2023-02-23T10:02:08;18.73;;;14.02;;
10687;SDS011;5392;42.688;23.298;2023-02-23T10:04:42;15.15;;;12.18;;
10687;SDS011;5392;42.688;23.298;2023-02-23T10:07:27;25.83;;;14.70;;
10687;SDS011;5392;42.688;23.298;2023-02-23T10:18:20;20.33;;;13.57;;
10687;SDS011;5392;42.688;23.298;2023-02-23T10:24:11;13.93;;;11.63;;
10687;SDS011;5392;42.688;23.298;2023-02-23T10:26:55;17.88;;;12.02;;
10687;SDS011;5392;42.688;23.298;2023-02-23T10:31:59;16.25;;;11.38;;
10687;SDS011;5392;42.688;23.298;2023-02-23T10:34:30;17.05;;;12.48;;
10687;SDS011;5392;42.688;23.298;2023-02-23T10:36:59;27.40;;;12.95;;
10687;SDS011;5392;42.688;23.298;2023-02-23T10:39:28;14.20;;;11.25;;
10687;SDS011;5392;42.688;23.298;2023-02-23T10:41:59;16.75;;;10.90;;
10687;SDS011;5392;42.688;23.298;2023-02-23T10:44:30;41.38;;;13.00;;
10687;SDS011;5392;42.688;23.298;2023-02-23T10:47:01;15.15;;;11.00;;
10687;SDS011;5392;42.688;23.298;2023-02-23T10:49:44;16.52;;;11.35;;
10687;SDS011;5392;42.688;23.298;2023-02-23T10:52:14;12.10;;;10.25;;
10687;SDS011;5392;42.688;23.298;2023-02-23T10:54:46;17.65;;;9.93;;
10687;SDS011;5392;42.688;23.298;2023-02-23T10:57:30;12.40;;;8.57;;
10687;SDS011;5392;42.688;23.298;2023-02-23T11:02:53;13.27;;;8.23;;
10687;SDS011;5392;42.688;23.298;2023-02-23T11:10:55;10.30;;;7.30;;
10687;SDS011;5392;42.688;23.298;2023-02-23T11:13:44;11.23;;;6.95;;
10687;SDS011;5392;42.688;23.298;2023-02-23T11:16:13;11.38;;;7.40;;
10687;SDS011;5392;42.688;23.298;2023-02-23T11:18:50;8.52;;;7.15;;
10687;SDS011;5392;42.688;23.298;2023-02-23T11:21:31;9.38;;;6.60;;
10687;SDS011;5392;42.688;23.298;2023-02-23T11:26:47;9.57;;;6.95;;
10687;SDS011;5392;42.688;23.298;2023-02-23T11:31:58;7.30;;;5.68;;
10687;SDS011;5392;42.688;23.298;2023-02-23T11:34:36;7.25;;;5.95;;
10687;SDS011;5392;42.688;23.298;2023-02-23T11:37:17;9.73;;;5.95;;
10687;SDS011;5392;42.688;23.298;2023-02-23T11:40:00;10.70;;;6.57;;
10687;SDS011;5392;42.688;23.298;2023-02-23T11:42:31;4.70;;;4.32;;
10687;SDS011;5392;42.688;23.298;2023-02-23T11:47:46;7.32;;;5.07;;
10687;SDS011;5392;42.688;23.298;2023-02-23T11:50:22;4.95;;;3.85;;
10687;SDS011;5392;42.688;23.298;2023-02-23T11:52:52;5.38;;;3.22;;
10687;SDS011;5392;42.688;23.298;2023-02-23T11:55:26;4.43;;;3.75;;
10687;SDS011;5392;42.688;23.298;2023-02-23T12:01:07;7.70;;;4.22;;
10687;SDS011;5392;42.688;23.298;2023-02-23T12:03:42;8.35;;;4.25;;
10687;SDS011;5392;42.688;23.298;2023-02-23T12:06:34;6.30;;;4.00;;
10687;SDS011;5392;42.688;23.298;2023-02-23T12:11:39;4.72;;;2.63;;
10687;SDS011;5392;42.688;23.298;2023-02-23T12:14:23;2.97;;;2.70;;
10687;SDS011;5392;42.688;23.298;2023-02-23T12:16:56;2.50;;;2.33;;
10687;SDS011;5392;42.688;23.298;2023-02-23T12:19:32;2.85;;;2.65;;
10687;SDS011;5392;42.688;23.298;2023-02-23T12:22:09;2.47;;;2.28;;
10687;SDS011;5392;42.688;23.298;2023-02-23T12:30:03;3.70;;;2.10;;
10687;SDS011;5392;42.688;23.298;2023-02-23T12:35:57;4.70;;;2.20;;
10687;SDS011;5392;42.688;23.298;2023-02-23T12:41:13;2.72;;;2.17;;
10687;SDS011;5392;42.688;23.298;2023-02-23T12:43:54;2.38;;;1.63;;
10687;SDS011;5392;42.688;23.298;2023-02-23T12:46:29;1.73;;;1.63;;
10687;SDS011;5392;42.688;23.298;2023-02-23T12:49:05;2.65;;;1.33;;
10687;SDS011;5392;42.688;23.298;2023-02-23T12:54:18;3.40;;;1.65;;
10687;SDS011;5392;42.688;23.298;2023-02-23T13:01:57;2.35;;;2.25;;
10687;SDS011;5392;42.688;23.298;2023-02-23T13:08:06;2.78;;;2.08;;
10687;SDS011;5392;42.688;23.298;2023-02-23T13:13:11;3.17;;;2.90;;
10687;SDS011;5392;42.688;23.298;2023-02-23T13:15:51;4.30;;;2.50;;
10687;SDS011;5392;42.688;23.298;2023-02-23T13:18:22;4.80;;;3.03;;
10687;SDS011;5392;42.688;23.298;2023-02-23T13:20:57;4.78;;;2.65;;
10687;SDS011;5392;42.688;23.298;2023-02-23T13:23:32;2.65;;;2.03;;
10687;SDS011;5392;42.688;23.298;2023-02-23T13:28:48;3.35;;;2.42;;
10687;SDS011;5392;42.688;23.298;2023-02-23T13:31:23;3.80;;;2.25;;
10687;SDS011;5392;42.688;23.298;2023-02-23T13:33:56;4.88;;;2.78;;
10687;SDS011;5392;42.688;23.298;2023-02-23T13:36:26;3.08;;;1.95;;
10687;SDS011;5392;42.688;23.298;2023-02-23T13:50:42;4.82;;;2.30;;
10687;SDS011;5392;42.688;23.298;2023-02-23T13:53:35;5.07;;;2.80;;
10687;SDS011;5392;42.688;23.298;2023-02-23T13:56:21;1.70;;;1.60;;
10687;SDS011;5392;42.688;23.298;2023-02-23T13:58:51;5.07;;;2.88;;
10687;SDS011;5392;42.688;23.298;2023-02-23T14:01:37;3.78;;;1.92;;
10687;SDS011;5392;42.688;23.298;2023-02-23T14:04:06;2.53;;;1.80;;
10687;SDS011;5392;42.688;23.298;2023-02-23T14:06:48;3.78;;;1.60;;
10687;SDS011;5392;42.688;23.298;2023-02-23T14:09:20;3.70;;;2.50;;
10687;SDS011;5392;42.688;23.298;2023-02-23T14:12:05;2.95;;;1.98;;
10687;SDS011;5392;42.688;23.298;2023-02-23T14:14:42;2.20;;;2.00;;
10687;SDS011;5392;42.688;23.298;2023-02-23T14:19:41;3.17;;;1.83;;
10687;SDS011;5392;42.688;23.298;2023-02-23T14:22:09;3.28;;;1.70;;
10687;SDS011;5392;42.688;23.298;2023-02-23T14:27:56;2.03;;;1.92;;
10687;SDS011;5392;42.688;23.298;2023-02-23T14:30:26;3.53;;;2.00;;
10687;SDS011;5392;42.688;23.298;2023-02-23T14:32:59;3.03;;;1.88;;
10687;SDS011;5392;42.688;23.298;2023-02-23T14:35:46;2.92;;;2.53;;
10687;SDS011;5392;42.688;23.298;2023-02-23T14:38:47;4.53;;;2.10;;
10687;SDS011;5392;42.688;23.298;2023-02-23T14:41:13;3.90;;;2.15;;
10687;SDS011;5392;42.688;23.298;2023-02-23T14:43:41;3.78;;;2.03;;
10687;SDS011;5392;42.688;23.298;2023-02-23T14:46:15;2.45;;;1.85;;
10687;SDS011;5392;42.688;23.298;2023-02-23T14:48:57;4.28;;;2.10;;
10687;SDS011;5392;42.688;23.298;2023-02-23T14:51:41;7.20;;;2.65;;
10687;SDS011;5392;42.688;23.298;2023-02-23T14:56:57;6.00;;;2.95;;
10687;SDS011;5392;42.688;23.298;2023-02-23T14:59:28;8.18;;;2.78;;
10687;SDS011;5392;42.688;23.298;2023-02-23T15:02:06;6.68;;;2.40;;
10687;SDS011;5392;42.688;23.298;2023-02-23T15:04:45;6.22;;;2.83;;
10687;SDS011;5392;42.688;23.298;2023-02-23T15:07:27;6.22;;;2.08;;
10687;SDS011;5392;42.688;23.298;2023-02-23T15:10:11;5.53;;;1.95;;
10687;SDS011;5392;42.688;23.298;2023-02-23T15:12:49;3.65;;;2.33;;
10687;SDS011;5392;42.688;23.298;2023-02-23T15:15:19;4.82;;;1.50;;
10687;SDS011;5392;42.688;23.298;2023-02-23T15:17:49;4.25;;;1.88;;
10687;SDS011;5392;42.688;23.298;2023-02-23T15:20:19;2.85;;;2.10;;
10687;SDS011;5392;42.688;23.298;2023-02-23T15:22:53;2.85;;;1.95;;
10687;SDS011;5392;42.688;23.298;2023-02-23T15:25:23;7.25;;;2.85;;
10687;SDS011;5392;42.688;23.298;2023-02-23T15:27:59;4.95;;;2.92;;
10687;SDS011;5392;42.688;23.298;2023-02-23T15:30:42;2.58;;;1.70;;
10687;SDS011;5392;42.688;23.298;2023-02-23T15:33:11;4.80;;;2.72;;
10687;SDS011;5392;42.688;23.298;2023-02-23T15:35:44;2.47;;;1.98;;
10687;SDS011;5392;42.688;23.298;2023-02-23T15:38:15;4.03;;;2.85;;
10687;SDS011;5392;42.688;23.298;2023-02-23T15:41:11;6.78;;;3.88;;
10687;SDS011;5392;42.688;23.298;2023-02-23T15:44:04;6.85;;;3.72;;
10687;SDS011;5392;42.688;23.298;2023-02-23T15:46:37;5.97;;;3.95;;
10687;SDS011;5392;42.688;23.298;2023-02-23T15:52:07;4.88;;;3.72;;
10687;SDS011;5392;42.688;23.298;2023-02-23T15:54:58;2.42;;;2.22;;
10687;SDS011;5392;42.688;23.298;2023-02-23T15:57:31;2.20;;;2.10;;
10687;SDS011;5392;42.688;23.298;2023-02-23T16:00:02;2.67;;;1.92;;
10687;SDS011;5392;42.688;23.298;2023-02-23T16:02:37;4.85;;;3.60;;
10687;SDS011;5392;42.688;23.298;2023-02-23T16:05:39;4.10;;;3.78;;
10687;SDS011;5392;42.688;23.298;2023-02-23T16:08:17;7.10;;;3.92;;
10687;SDS011;5392;42.688;23.298;2023-02-23T16:10:49;4.63;;;3.83;;
10687;SDS011;5392;42.688;23.298;2023-02-23T16:13:20;7.85;;;4.22;;
10687;SDS011;5392;42.688;23.298;2023-02-23T16:15:47;8.80;;;5.45;;
10687;SDS011;5392;42.688;23.298;2023-02-23T16:18:19;5.72;;;4.25;;
10687;SDS011;5392;42.688;23.298;2023-02-23T16:20:52;5.45;;;3.58;;
10687;SDS011;5392;42.688;23.298;2023-02-23T16:26:06;5.43;;;3.08;;
10687;SDS011;5392;42.688;23.298;2023-02-23T16:28:41;4.20;;;3.50;;
10687;SDS011;5392;42.688;23.298;2023-02-23T16:31:10;3.17;;;2.00;;
10687;SDS011;5392;42.688;23.298;2023-02-23T16:33:42;3.78;;;2.75;;
10687;SDS011;5392;42.688;23.298;2023-02-23T16:36:20;3.20;;;2.13;;
10687;SDS011;5392;42.688;23.298;2023-02-23T16:39:03;5.25;;;3.63;;
10687;SDS011;5392;42.688;23.298;2023-02-23T16:41:35;6.00;;;3.47;;
10687;SDS011;5392;42.688;23.298;2023-02-23T16:44:03;2.40;;;2.20;;
10687;SDS011;5392;42.688;23.298;2023-02-23T16:46:32;3.28;;;2.60;;
10687;SDS011;5392;42.688;23.298;2023-02-23T16:49:19;5.78;;;3.40;;
10687;SDS011;5392;42.688;23.298;2023-02-23T16:51:51;5.10;;;3.03;;
10687;SDS011;5392;42.688;23.298;2023-02-23T16:54:18;7.07;;;4.13;;
10687;SDS011;5392;42.688;23.298;2023-02-23T16:56:45;5.63;;;3.75;;
10687;SDS011;5392;42.688;23.298;2023-02-23T16:59:14;5.18;;;3.50;;
10687;SDS011;5392;42.688;23.298;2023-02-23T17:01:43;5.57;;;3.33;;
10687;SDS011;5392;42.688;23.298;2023-02-23T17:04:15;8.55;;;4.30;;
10687;SDS011;5392;42.688;23.298;2023-02-23T17:06:44;10.23;;;4.97;;
10687;SDS011;5392;42.688;23.298;2023-02-23T17:09:12;4.38;;;3.85;;
10687;SDS011;5392;42.688;23.298;2023-02-23T17:11:42;7.20;;;3.75;;
10687;SDS011;5392;42.688;23.298;2023-02-23T17:14:21;5.85;;;3.58;;
10687;SDS011;5392;42.688;23.298;2023-02-23T17:16:50;3.20;;;2.72;;
10687;SDS011;5392;42.688;23.298;2023-02-23T17:19:17;6.30;;;4.57;;
10687;SDS011;5392;42.688;23.298;2023-02-23T17:21:44;5.07;;;3.67;;
10687;SDS011;5392;42.688;23.298;2023-02-23T17:24:11;10.93;;;5.82;;
10687;SDS011;5392;42.688;23.298;2023-02-23T17:26:38;9.73;;;4.05;;